Time;durP1;ratioP1;P1;durP2;ratioP2;P2;SDS_P1;SDS_P2;PMS_P1;PMS_P2;Temp;Humidity;BMP_temperature;BMP_pressure;BME280_temperature;BME280_humidity;BME280_pressure;Samples;Min_cycle;Max_cycle;Signal;HPM_P1;HPM_P2
2023/10/07 00:02:15;;;;;;;14.98;4.40;;;17.30;81.20;;;;;;5053036;28;20044;-94
2023/10/07 00:04:42;;;;;;;18.27;5.22;;;17.40;81.40;;;;;;5044415;28;20091;-92
2023/10/07 00:07:12;;;;;;;11.68;4.38;;;17.40;81.50;;;;;;5020763;28;20055;-92
2023/10/07 00:09:43;;;;;;;14.30;4.47;;;17.30;81.50;;;;;;5055244;28;20412;-96
2023/10/07 00:12:14;;;;;;;12.30;4.47;;;17.30;81.50;;;;;;5056434;28;20048;-93
2023/10/07 00:14:40;;;;;;;10.27;3.95;;;17.30;81.50;;;;;;5036778;28;20076;-93
2023/10/07 00:17:19;;;;;;;14.60;4.47;;;17.30;81.60;;;;;;5019708;28;20056;-93
2023/10/07 00:19:46;;;;;;;14.57;4.32;;;17.30;81.60;;;;;;5019698;28;20041;-94
2023/10/07 00:22:19;;;;;;;14.43;4.63;;;17.30;81.60;;;;;;5033835;28;20102;-94
2023/10/07 00:24:48;;;;;;;16.33;4.97;;;17.40;81.80;;;;;;5031440;28;20056;-95
2023/10/07 00:27:26;;;;;;;13.05;4.47;;;17.40;81.80;;;;;;5036507;28;20448;-93
2023/10/07 00:29:54;;;;;;;12.77;4.00;;;17.40;81.90;;;;;;5024747;28;20114;-92
2023/10/07 00:32:32;;;;;;;12.88;4.57;;;17.40;81.90;;;;;;5025455;28;20045;-94
2023/10/07 00:35:01;;;;;;;12.48;4.07;;;17.50;81.90;;;;;;5044063;28;20307;-94
2023/10/07 00:37:33;;;;;;;11.10;3.95;;;17.40;81.90;;;;;;5019097;28;20132;-92
2023/10/07 00:40:10;;;;;;;12.48;4.05;;;17.60;82.10;;;;;;5036348;28;20050;-93
2023/10/07 00:42:41;;;;;;;13.88;4.15;;;17.50;82.00;;;;;;5035676;28;20170;-93
2023/10/07 00:45:14;;;;;;;12.98;4.57;;;17.50;82.00;;;;;;5044166;28;20047;-92
2023/10/07 00:47:40;;;;;;;13.30;4.05;;;17.40;81.90;;;;;;5035846;28;20106;-94
2023/10/07 00:50:09;;;;;;;13.10;4.55;;;17.50;82.00;;;;;;5039260;28;20045;-93
2023/10/07 00:52:55;;;;;;;11.27;4.05;;;17.50;82.00;;;;;;5036071;28;20396;-94
2023/10/07 00:55:29;;;;;;;11.50;4.70;;;17.50;82.00;;;;;;5056351;28;20041;-94
2023/10/07 01:03:32;;;;;;;14.57;5.05;;;17.50;82.10;;;;;;5055887;28;20152;-93
2023/10/07 01:08:35;;;;;;;10.30;4.38;;;17.50;82.20;;;;;;5036408;28;20501;-93
2023/10/07 01:13:51;;;;;;;17.60;4.55;;;17.60;82.20;;;;;;5049593;28;20373;-93
2023/10/07 01:19:19;;;;;;;11.52;4.82;;;17.50;82.20;;;;;;5056570;28;20087;-94
2023/10/07 01:22:35;;;;;;;14.00;5.78;;;17.60;82.30;;;;;;5023475;28;20062;-93
2023/10/07 01:27:17;;;;;;;10.60;4.28;;;17.60;82.30;;;;;;5055682;28;20337;-96
2023/10/07 01:29:44;;;;;;;13.05;4.95;;;17.60;82.30;;;;;;5038482;28;20485;-92
2023/10/07 01:32:15;;;;;;;11.85;4.03;;;17.60;82.30;;;;;;5048751;28;20475;-94
2023/10/07 01:34:47;;;;;;;12.27;4.00;;;17.60;82.40;;;;;;5034938;28;20099;-92
2023/10/07 01:37:15;;;;;;;14.85;4.32;;;17.60;82.30;;;;;;5044715;28;20057;-94
2023/10/07 01:39:42;;;;;;;14.00;4.78;;;17.60;82.30;;;;;;5040916;28;20052;-90
2023/10/07 01:42:14;;;;;;;16.30;4.13;;;17.60;82.30;;;;;;5043575;28;20147;-94
2023/10/07 01:44:41;;;;;;;14.35;4.93;;;17.60;82.40;;;;;;5022530;28;20048;-93
2023/10/07 01:47:23;;;;;;;13.75;4.95;;;17.60;82.40;;;;;;5034635;28;20094;-93
2023/10/07 01:49:56;;;;;;;17.30;5.15;;;17.70;82.50;;;;;;5022893;28;20024;-93
2023/10/07 01:52:26;;;;;;;16.33;5.30;;;17.70;82.50;;;;;;5038943;28;20056;-89
2023/10/07 01:54:55;;;;;;;8.60;4.82;;;17.70;82.50;;;;;;5061935;28;20040;-92
2023/10/07 01:57:21;;;;;;;10.68;4.35;;;17.70;82.50;;;;;;5040874;28;20040;-91
2023/10/07 01:59:47;;;;;;;13.52;4.65;;;17.70;82.50;;;;;;5046247;28;20051;-93
2023/10/07 02:02:14;;;;;;;9.27;4.35;;;17.70;82.50;;;;;;5050942;28;20047;-93
2023/10/07 02:04:40;;;;;;;15.40;5.03;;;17.70;82.40;;;;;;5054475;28;20036;-93
2023/10/07 02:07:08;;;;;;;12.75;5.38;;;17.70;82.40;;;;;;5059752;28;20510;-92
2023/10/07 02:09:40;;;;;;;14.52;4.53;;;17.70;82.50;;;;;;5053943;28;20076;-95
2023/10/07 02:12:09;;;;;;;12.13;4.35;;;17.70;82.50;;;;;;5035200;28;20047;-93
2023/10/07 02:14:37;;;;;;;14.13;5.43;;;18.00;83.10;;;;;;5035214;28;20055;-95
2023/10/07 02:17:03;;;;;;;17.00;5.07;;;17.70;82.50;;;;;;5034529;28;20045;-92
2023/10/07 02:19:29;;;;;;;12.68;4.18;;;18.00;82.70;;;;;;5029895;28;20082;-92
2023/10/07 02:22:07;;;;;;;14.05;4.13;;;17.70;82.50;;;;;;5038632;28;20088;-91
2023/10/07 02:24:34;;;;;;;11.02;4.38;;;17.70;82.50;;;;;;5055769;28;20147;-92
2023/10/07 02:27:11;;;;;;;15.68;4.38;;;17.80;82.50;;;;;;5030704;28;20033;-92
2023/10/07 02:29:39;;;;;;;14.45;4.68;;;17.80;83.10;;;;;;5040614;28;20067;-91
2023/10/07 02:32:07;;;;;;;13.45;4.60;;;17.80;82.60;;;;;;5043340;28;20491;-93
2023/10/07 02:34:34;;;;;;;13.75;5.00;;;18.00;82.70;;;;;;5041904;28;20485;-92
2023/10/07 02:37:11;;;;;;;10.05;3.60;;;17.80;82.70;;;;;;5034411;28;20370;-92
2023/10/07 02:39:46;;;;;;;11.55;4.00;;;17.80;82.70;;;;;;5045286;28;20036;-92
2023/10/07 02:42:23;;;;;;;11.02;4.45;;;17.80;82.70;;;;;;5053826;28;20476;-92
2023/10/07 02:44:54;;;;;;;14.80;4.75;;;17.80;82.70;;;;;;5053358;28;20055;-92
2023/10/07 02:47:20;;;;;;;14.63;4.22;;;17.80;82.70;;;;;;5037496;28;20032;-91
2023/10/07 02:49:49;;;;;;;17.50;4.68;;;17.80;82.80;;;;;;5019306;28;20489;-91
2023/10/07 02:52:17;;;;;;;11.43;4.30;;;17.80;82.80;;;;;;5017797;28;20103;-92
2023/10/07 02:54:43;;;;;;;13.00;3.78;;;17.80;82.80;;;;;;5023094;28;20043;-92
2023/10/07 02:57:21;;;;;;;9.80;3.95;;;17.80;82.80;;;;;;5054185;28;20049;-94
2023/10/07 03:00:00;;;;;;;10.73;3.80;;;17.80;82.80;;;;;;5020186;28;20041;-92
2023/10/07 03:02:48;;;;;;;12.75;4.10;;;17.80;82.80;;;;;;5038128;28;20037;-93
2023/10/07 03:05:14;;;;;;;11.32;4.03;;;17.80;82.70;;;;;;5055099;28;20053;-93
2023/10/07 03:08:01;;;;;;;15.95;4.70;;;17.80;82.70;;;;;;5017307;28;20045;-95
2023/10/07 03:10:32;;;;;;;8.13;3.92;;;17.90;82.80;;;;;;5037208;28;20062;-94
2023/10/07 03:12:58;;;;;;;9.90;3.97;;;17.90;82.80;;;;;;5053266;28;20086;-93
2023/10/07 03:17:59;;;;;;;10.80;4.10;;;17.90;82.80;;;;;;5053657;28;20409;-91
2023/10/07 03:20:28;;;;;;;11.73;3.90;;;17.90;82.80;;;;;;5053336;28;20079;-93
2023/10/07 03:23:25;;;;;;;11.10;3.85;;;17.90;82.80;;;;;;5033376;28;20048;-93
2023/10/07 03:28:20;;;;;;;10.45;3.78;;;17.90;82.80;;;;;;5040566;28;20044;-93
2023/10/07 03:30:55;;;;;;;9.02;3.45;;;17.90;82.90;;;;;;5053741;28;20067;-93
2023/10/07 03:33:45;;;;;;;10.70;4.15;;;17.90;82.90;;;;;;5036699;28;20036;-94
2023/10/07 03:38:55;;;;;;;11.27;4.40;;;17.90;82.80;;;;;;5063935;28;20056;-94
2023/10/07 03:41:22;;;;;;;11.05;3.30;;;17.90;82.80;;;;;;5055739;28;20048;-92
2023/10/07 03:43:47;;;;;;;13.65;4.15;;;17.90;82.80;;;;;;5021384;28;20037;-93
2023/10/07 03:46:17;;;;;;;12.07;4.05;;;17.90;82.80;;;;;;5039805;28;20138;-90
2023/10/07 03:48:53;;;;;;;13.68;4.55;;;17.90;82.80;;;;;;5034533;28;20037;-93
2023/10/07 03:51:21;;;;;;;10.38;4.10;;;17.90;82.80;;;;;;5039222;28;20092;-92
2023/10/07 03:53:49;;;;;;;11.73;3.90;;;17.90;82.80;;;;;;5057408;28;20048;-93
2023/10/07 03:56:16;;;;;;;13.98;4.28;;;17.90;82.80;;;;;;5041218;28;20056;-92
2023/10/07 03:58:43;;;;;;;11.98;4.57;;;17.90;82.80;;;;;;5039829;28;20040;-92
2023/10/07 04:01:16;;;;;;;16.88;4.32;;;17.90;82.70;;;;;;5040204;28;20033;-92
2023/10/07 04:03:46;;;;;;;15.40;4.03;;;17.90;82.80;;;;;;5032290;28;20116;-92
2023/10/07 04:06:13;;;;;;;12.68;3.90;;;17.90;82.80;;;;;;5040720;28;20039;-92
2023/10/07 04:08:40;;;;;;;10.57;4.25;;;17.90;82.90;;;;;;5040551;28;20036;-93
2023/10/07 04:11:13;;;;;;;11.93;4.32;;;17.90;82.90;;;;;;5040426;28;20082;-92
2023/10/07 04:13:39;;;;;;;12.55;5.28;;;17.90;82.80;;;;;;5057453;28;20048;-91
2023/10/07 04:16:14;;;;;;;12.65;4.03;;;17.80;82.70;;;;;;5036593;28;20072;-94
2023/10/07 04:18:40;;;;;;;12.13;4.38;;;18.00;82.80;;;;;;5042743;28;20118;-92
2023/10/07 04:21:06;;;;;;;10.68;3.90;;;17.90;83.20;;;;;;5025052;28;20048;-91
2023/10/07 04:23:32;;;;;;;12.60;4.45;;;17.90;82.80;;;;;;5039322;28;20430;-91
2023/10/07 04:26:08;;;;;;;11.68;3.83;;;17.90;82.80;;;;;;5051732;28;20032;-91
2023/10/07 04:28:34;;;;;;;13.38;4.15;;;18.00;82.90;;;;;;5038929;28;20040;-91
2023/10/07 04:31:00;;;;;;;14.25;4.43;;;18.00;82.90;;;;;;5057186;28;20562;-92
2023/10/07 04:33:32;;;;;;;9.25;3.50;;;18.00;82.90;;;;;;5039384;28;20036;-91
2023/10/07 04:36:03;;;;;;;13.13;3.67;;;17.90;82.90;;;;;;5055544;28;20041;-93
2023/10/07 04:43:49;;;;;;;11.40;4.03;;;18.00;82.90;;;;;;5057295;28;20045;-91
2023/10/07 04:46:23;;;;;;;9.65;3.50;;;18.00;82.90;;;;;;5039425;28;20033;-91
2023/10/07 04:48:56;;;;;;;11.77;3.92;;;18.00;82.90;;;;;;5051558;28;20029;-91
2023/10/07 04:53:59;;;;;;;10.98;4.07;;;18.00;82.90;;;;;;5057171;28;20098;-91
2023/10/07 04:56:26;;;;;;;12.80;4.25;;;18.00;82.90;;;;;;5058545;28;20107;-92
2023/10/07 04:58:53;;;;;;;13.95;4.20;;;18.00;82.90;;;;;;5023029;28;20068;-91
2023/10/07 05:01:30;;;;;;;10.32;3.78;;;18.00;82.80;;;;;;5028397;28;20116;-91
2023/10/07 05:03:58;;;;;;;9.25;4.30;;;18.00;82.80;;;;;;5038349;28;20547;-91
2023/10/07 05:06:26;;;;;;;12.30;5.30;;;17.90;82.70;;;;;;5044486;28;20118;-91
2023/10/07 05:08:52;;;;;;;15.65;4.50;;;17.90;82.70;;;;;;5019170;28;20051;-91
2023/10/07 05:11:18;;;;;;;10.45;4.18;;;17.90;82.70;;;;;;5018892;28;20052;-92
2023/10/07 05:13:46;;;;;;;15.60;4.93;;;18.10;82.80;;;;;;5019115;28;20128;-91
2023/10/07 05:16:13;;;;;;;11.50;4.10;;;17.90;83.10;;;;;;5035553;28;20040;-91
2023/10/07 05:18:39;;;;;;;9.90;3.95;;;17.90;82.70;;;;;;5035768;28;20049;-90
2023/10/07 05:21:05;;;;;;;10.10;3.63;;;17.90;82.70;;;;;;5035107;28;20124;-90
2023/10/07 05:23:31;;;;;;;10.48;3.45;;;17.90;82.70;;;;;;5038775;28;20036;-89
2023/10/07 05:26:03;;;;;;;11.25;3.88;;;17.90;82.70;;;;;;5022617;28;20175;-90
2023/10/07 05:28:32;;;;;;;11.70;4.03;;;17.90;82.70;;;;;;5037721;28;20040;-90
2023/10/07 05:31:00;;;;;;;9.20;4.13;;;17.90;82.70;;;;;;5055402;28;20047;-90
2023/10/07 05:33:28;;;;;;;12.98;4.55;;;17.90;82.70;;;;;;5039145;28;20139;-88
2023/10/07 05:35:59;;;;;;;10.05;3.65;;;17.90;82.70;;;;;;5056673;28;20180;-87
2023/10/07 05:38:25;;;;;;;10.85;3.70;;;17.90;82.70;;;;;;5053990;28;20195;-90
2023/10/07 05:40:51;;;;;;;11.38;4.85;;;17.90;82.70;;;;;;5054782;28;20123;-91
2023/10/07 05:43:16;;;;;;;13.30;3.90;;;17.90;82.70;;;;;;5056720;28;20391;-88
2023/10/07 05:45:45;;;;;;;13.45;4.53;;;17.80;82.80;;;;;;5051759;28;20064;-91
2023/10/07 05:48:10;;;;;;;11.68;4.65;;;17.80;82.90;;;;;;5052851;28;20468;-90
2023/10/07 05:50:38;;;;;;;10.95;4.00;;;17.80;82.90;;;;;;5038099;28;20070;-91
2023/10/07 05:53:04;;;;;;;12.32;4.63;;;17.80;83.00;;;;;;5054884;28;20076;-91
2023/10/07 05:55:31;;;;;;;8.40;4.03;;;17.80;83.00;;;;;;5054683;28;20116;-91
2023/10/07 05:57:58;;;;;;;10.13;4.57;;;18.30;83.30;;;;;;5036004;28;20089;-92
2023/10/07 06:00:25;;;;;;;11.30;4.22;;;17.80;83.00;;;;;;5038594;28;20044;-92
2023/10/07 06:02:55;;;;;;;15.68;4.93;;;17.80;83.00;;;;;;5054381;28;20345;-91
2023/10/07 06:05:27;;;;;;;12.40;5.10;;;17.80;83.00;;;;;;5021725;28;20037;-92
2023/10/07 06:07:57;;;;;;;11.30;4.10;;;17.80;83.10;;;;;;5037417;28;20073;-92
2023/10/07 06:10:24;;;;;;;13.30;4.97;;;17.70;83.00;;;;;;5035631;28;20086;-94
2023/10/07 06:12:55;;;;;;;14.73;5.38;;;17.80;83.20;;;;;;5041717;28;20044;-91
2023/10/07 06:15:23;;;;;;;12.52;4.13;;;17.70;83.20;;;;;;5054670;28;20485;-92
2023/10/07 06:17:49;;;;;;;15.02;4.72;;;17.70;83.10;;;;;;5037792;28;20093;-94
2023/10/07 06:20:15;;;;;;;9.60;4.05;;;17.70;83.10;;;;;;5055942;28;20063;-92
2023/10/07 06:22:48;;;;;;;12.65;4.65;;;17.70;83.20;;;;;;5038649;28;20048;-92
2023/10/07 06:25:17;;;;;;;14.30;4.38;;;17.70;83.30;;;;;;5040248;28;20349;-94
2023/10/07 06:27:44;;;;;;;15.80;4.68;;;17.70;83.30;;;;;;5050335;28;20047;-91
2023/10/07 06:30:20;;;;;;;14.40;4.80;;;17.70;83.30;;;;;;5043906;28;20029;-92
2023/10/07 06:32:54;;;;;;;13.27;4.20;;;17.70;83.40;;;;;;5036218;28;20045;-92
2023/10/07 06:35:23;;;;;;;12.80;4.05;;;17.70;83.40;;;;;;5034745;28;20068;-90
2023/10/07 06:37:52;;;;;;;14.23;4.55;;;17.80;83.50;;;;;;5034407;28;20083;-90
2023/10/07 06:40:31;;;;;;;13.23;5.00;;;17.80;83.50;;;;;;5034442;28;20086;-91
2023/10/07 06:42:58;;;;;;;14.57;4.40;;;17.80;83.50;;;;;;5034560;28;20045;-93
2023/10/07 06:45:38;;;;;;;15.52;4.82;;;17.70;83.40;;;;;;5017954;28;20116;-94
2023/10/07 06:48:09;;;;;;;16.92;4.72;;;17.90;83.60;;;;;;5018080;28;20055;-96
2023/10/07 06:50:35;;;;;;;9.23;3.72;;;17.80;83.50;;;;;;5033922;28;20047;-94
2023/10/07 06:53:01;;;;;;;11.32;4.20;;;17.70;83.50;;;;;;5017561;28;20492;-94
2023/10/07 06:55:35;;;;;;;10.55;4.07;;;17.80;83.60;;;;;;5018124;28;20040;-93
2023/10/07 06:58:04;;;;;;;15.25;4.78;;;17.90;83.60;;;;;;5035699;28;20048;-94
2023/10/07 07:00:46;;;;;;;11.32;4.57;;;17.90;83.60;;;;;;5033107;28;20489;-92
2023/10/07 07:03:24;;;;;;;12.43;4.95;;;17.80;83.60;;;;;;5025171;28;20048;-95
2023/10/07 07:05:50;;;;;;;12.70;5.00;;;17.90;83.60;;;;;;5037096;28;20033;-93
2023/10/07 07:08:22;;;;;;;12.20;4.47;;;17.90;84.00;;;;;;5037031;28;20037;-94
2023/10/07 07:10:50;;;;;;;15.45;4.40;;;17.90;83.60;;;;;;5038454;28;20045;-95
2023/10/07 07:13:22;;;;;;;11.35;3.95;;;17.90;83.60;;;;;;5037824;28;20503;-93
2023/10/07 07:16:06;;;;;;;19.88;5.47;;;17.90;83.60;;;;;;5029241;28;20513;-94
2023/10/07 07:18:39;;;;;;;11.38;4.20;;;17.90;83.70;;;;;;5032652;28;20041;-95
2023/10/07 07:23:50;;;;;;;9.88;4.00;;;18.00;83.60;;;;;;5038360;28;20041;-93
2023/10/07 07:26:20;;;;;;;13.68;3.95;;;18.00;83.60;;;;;;5039136;28;20035;-93
2023/10/07 07:28:47;;;;;;;14.25;4.85;;;18.10;83.60;;;;;;5037421;28;20032;-92
2023/10/07 07:31:19;;;;;;;13.07;4.72;;;18.10;83.60;;;;;;5049209;28;20048;-92
2023/10/07 07:33:48;;;;;;;15.35;4.57;;;18.10;83.50;;;;;;5049441;28;20143;-93
2023/10/07 07:39:06;;;;;;;14.18;5.25;;;18.20;83.30;;;;;;5072178;28;20033;-93
2023/10/07 07:41:37;;;;;;;10.52;3.88;;;18.20;83.30;;;;;;5041209;28;20045;-94
2023/10/07 07:44:10;;;;;;;13.05;4.57;;;18.20;83.20;;;;;;5042368;28;20048;-95
2023/10/07 07:46:51;;;;;;;13.95;5.00;;;18.30;83.20;;;;;;5062455;28;20043;-94
2023/10/07 07:49:19;;;;;;;15.63;5.00;;;18.30;83.20;;;;;;5040248;28;20100;-96
2023/10/07 07:51:51;;;;;;;14.10;5.45;;;18.40;83.20;;;;;;5037147;28;20040;-93
2023/10/07 07:54:17;;;;;;;13.88;4.43;;;18.30;83.10;;;;;;5035966;28;20124;-89
2023/10/07 07:56:45;;;;;;;14.63;4.88;;;18.40;83.10;;;;;;5020345;28;20045;-95
2023/10/07 07:59:15;;;;;;;16.60;5.82;;;18.40;83.10;;;;;;5034915;28;20040;-96
2023/10/07 08:01:44;;;;;;;15.60;4.55;;;18.50;83.60;;;;;;5038855;28;20037;-93
2023/10/07 08:04:37;;;;;;;14.35;4.47;;;18.50;83.20;;;;;;5040529;28;20503;-92
2023/10/07 08:07:06;;;;;;;16.65;5.13;;;18.50;83.00;;;;;;5040200;28;20068;-96
2023/10/07 08:09:36;;;;;;;17.55;5.85;;;18.60;82.90;;;;;;5020512;28;20037;-95
2023/10/07 08:12:09;;;;;;;17.98;5.72;;;18.60;82.80;;;;;;5024365;28;20361;-95
2023/10/07 08:14:37;;;;;;;15.13;4.85;;;18.60;82.60;;;;;;5044230;28;20044;-96
2023/10/07 08:17:10;;;;;;;13.98;3.90;;;18.60;82.50;;;;;;5028863;28;20040;-92
2023/10/07 08:19:38;;;;;;;14.93;4.28;;;18.70;82.50;;;;;;5056619;28;20077;-96
2023/10/07 08:22:12;;;;;;;11.70;4.20;;;18.70;82.40;;;;;;5043476;28;20033;-92
2023/10/07 08:24:39;;;;;;;10.13;3.90;;;18.70;82.50;;;;;;5033204;28;20068;-91
2023/10/07 08:27:43;;;;;;;12.20;4.80;;;18.80;82.50;;;;;;5038633;28;20036;-96
2023/10/07 08:29:54;;;;;;;15.57;3.90;;;18.70;82.30;;;;;;5053206;28;20048;-93
2023/10/07 08:32:35;;;;;;;13.15;4.75;;;18.70;82.20;;;;;;5032615;28;20047;-96
2023/10/07 08:35:18;;;;;;;14.82;5.70;;;18.80;82.10;;;;;;5038415;28;20044;-96
2023/10/07 08:37:47;;;;;;;10.40;4.15;;;18.80;82.00;;;;;;5031031;28;20253;-96
2023/10/07 08:40:28;;;;;;;13.27;4.70;;;18.80;82.00;;;;;;5036574;28;20041;-95
2023/10/07 08:42:56;;;;;;;15.73;4.30;;;19.10;82.10;;;;;;5046101;28;20133;-95
2023/10/07 08:45:25;;;;;;;14.57;4.35;;;18.90;81.90;;;;;;5021388;28;20120;-96
2023/10/07 08:48:16;;;;;;;17.67;5.13;;;18.90;81.90;;;;;;5022391;28;20044;-94
2023/10/07 08:50:55;;;;;;;11.70;4.50;;;18.90;81.80;;;;;;5031955;28;20048;-94
2023/10/07 08:53:26;;;;;;;13.25;4.10;;;18.90;81.70;;;;;;5019851;28;20101;-94
2023/10/07 08:56:00;;;;;;;12.23;4.00;;;18.90;81.50;;;;;;5055465;28;20037;-95
2023/10/07 08:58:31;;;;;;;15.40;4.90;;;19.00;81.50;;;;;;5050888;28;20120;-96
2023/10/07 09:00:58;;;;;;;18.75;5.32;;;19.00;81.60;;;;;;5048637;28;20493;-93
2023/10/07 09:03:28;;;;;;;15.00;4.40;;;19.10;81.60;;;;;;5038294;28;20037;-95
2023/10/07 09:05:59;;;;;;;15.88;5.50;;;19.00;81.30;;;;;;5044510;28;20045;-94
2023/10/07 09:08:25;;;;;;;16.27;4.55;;;19.10;81.10;;;;;;5020896;28;20037;-95
2023/10/07 09:10:55;;;;;;;13.77;4.32;;;19.10;80.90;;;;;;5037442;28;20038;-94
2023/10/07 09:13:31;;;;;;;13.27;4.72;;;19.10;80.70;;;;;;5032946;28;20096;-96
2023/10/07 09:16:03;;;;;;;11.70;4.20;;;19.20;80.70;;;;;;5035998;28;20532;-94
2023/10/07 09:18:32;;;;;;;15.18;4.90;;;19.20;80.60;;;;;;5019962;28;20033;-94
2023/10/07 09:21:03;;;;;;;15.25;4.55;;;19.80;80.70;;;;;;5028904;28;20037;-96
2023/10/07 09:23:47;;;;;;;14.02;4.45;;;19.30;80.20;;;;;;5027604;28;20048;-95
2023/10/07 09:26:21;;;;;;;15.55;4.97;;;19.50;80.20;;;;;;5023488;28;20092;-95
2023/10/07 09:28:49;;;;;;;;;;;19.50;79.90;;;;;;5040453;28;20037;-96
2023/10/07 09:31:15;;;;;;;14.95;5.25;;;19.50;79.70;;;;;;5035372;28;19925;-95
2023/10/07 09:33:41;;;;;;;18.65;4.13;;;19.50;79.70;;;;;;5026768;28;20120;-93
2023/10/07 09:38:48;;;;;;;14.88;4.78;;;19.80;79.00;;;;;;5058120;28;20040;-96
2023/10/07 09:41:24;;;;;;;15.27;5.18;;;19.90;78.60;;;;;;5040293;28;20053;-95
2023/10/07 09:43:56;;;;;;;13.25;4.45;;;20.00;78.10;;;;;;5040700;28;20040;-94
2023/10/07 09:46:25;;;;;;;12.10;4.95;;;20.10;77.60;;;;;;5050002;28;20106;-94
2023/10/07 09:48:51;;;;;;;17.38;5.47;;;20.10;77.10;;;;;;5027466;28;20036;-95
2023/10/07 09:51:28;;;;;;;10.02;4.47;;;20.20;76.90;;;;;;5041574;28;20052;-93
2023/10/07 09:54:22;;;;;;;13.38;4.78;;;20.30;76.60;;;;;;5022947;28;20068;-95
2023/10/07 09:57:29;;;;;;;12.38;4.60;;;20.30;76.30;;;;;;5023609;28;20476;-96
2023/10/07 10:03:05;;;;;;;12.85;4.43;;;20.30;76.00;;;;;;5041947;28;20123;-96
2023/10/07 10:05:58;;;;;;;12.30;4.55;;;20.30;75.70;;;;;;5057097;28;20138;-95
2023/10/07 10:08:44;;;;;;;15.77;5.47;;;20.60;75.60;;;;;;5031870;28;20045;-96
2023/10/07 10:11:44;;;;;;;15.40;4.95;;;20.30;75.30;;;;;;5041443;28;20037;-96
2023/10/07 10:14:56;;;;;;;15.73;5.03;;;20.30;75.10;;;;;;5045338;28;20049;-94
2023/10/07 10:17:40;;;;;;;11.77;4.97;;;20.30;74.90;;;;;;5074952;28;20052;-96
2023/10/07 10:20:13;;;;;;;13.57;4.45;;;20.30;74.70;;;;;;5050039;28;20041;-96
2023/10/07 10:22:52;;;;;;;13.52;4.88;;;20.30;74.80;;;;;;5052296;28;20101;-96
2023/10/07 10:25:36;;;;;;;14.98;4.68;;;20.40;74.60;;;;;;5021746;28;20179;-95
2023/10/07 10:28:06;;;;;;;13.27;4.30;;;20.40;74.80;;;;;;5022057;28;20032;-96
2023/10/07 10:30:32;;;;;;;14.32;5.03;;;20.40;74.80;;;;;;5034982;28;20044;-95
2023/10/07 10:33:00;;;;;;;14.35;4.72;;;20.90;75.20;;;;;;5044218;28;20033;-96
2023/10/07 10:35:29;;;;;;;12.63;4.75;;;20.30;74.60;;;;;;5042787;28;20096;-96
2023/10/07 10:37:55;;;;;;;11.20;4.88;;;20.50;74.70;;;;;;5029086;28;20080;-92
2023/10/07 10:40:22;;;;;;;16.60;5.85;;;20.50;74.40;;;;;;5019025;28;20077;-93
2023/10/07 10:42:48;;;;;;;12.45;4.78;;;20.50;74.30;;;;;;5026784;28;20044;-93
2023/10/07 10:45:21;;;;;;;12.50;5.45;;;20.50;74.40;;;;;;5026866;28;20047;-92
2023/10/07 10:47:51;;;;;;;13.85;4.55;;;20.50;73.50;;;;;;5044981;28;20032;-90
2023/10/07 10:50:19;;;;;;;13.27;5.15;;;20.60;73.00;;;;;;5026259;28;20083;-89
2023/10/07 10:52:48;;;;;;;14.05;5.32;;;20.60;72.90;;;;;;5031275;28;20043;-87
2023/10/07 10:55:18;;;;;;;11.32;4.70;;;20.60;72.30;;;;;;5037574;28;20044;-87
2023/10/07 10:57:44;;;;;;;12.55;5.10;;;20.60;71.30;;;;;;5053940;28;20052;-89
2023/10/07 11:00:19;;;;;;;16.45;5.13;;;20.50;71.40;;;;;;5054318;28;20037;-88
2023/10/07 11:02:46;;;;;;;15.73;5.38;;;20.50;71.20;;;;;;5054248;28;20044;-88
2023/10/07 11:05:15;;;;;;;13.82;5.25;;;20.60;71.20;;;;;;5054111;28;20512;-87
2023/10/07 11:07:46;;;;;;;10.88;5.45;;;20.50;71.20;;;;;;5053872;28;20037;-87
2023/10/07 11:10:17;;;;;;;13.93;4.88;;;20.50;71.10;;;;;;5053711;28;20075;-90
2023/10/07 11:12:45;;;;;;;12.50;5.40;;;20.50;71.10;;;;;;5036817;28;20091;-92
2023/10/07 11:15:15;;;;;;;14.00;4.88;;;20.60;71.40;;;;;;5053872;28;20049;-89
2023/10/07 11:17:41;;;;;;;10.98;5.00;;;20.50;71.10;;;;;;5053629;28;20047;-87
2023/10/07 11:20:09;;;;;;;12.52;4.40;;;20.50;71.20;;;;;;5053545;28;20488;-87
2023/10/07 11:22:42;;;;;;;13.68;5.18;;;20.50;70.90;;;;;;5036554;28;20041;-88
2023/10/07 11:25:14;;;;;;;9.85;4.30;;;20.50;71.00;;;;;;5036014;28;20036;-87
2023/10/07 11:27:42;;;;;;;12.93;4.43;;;20.50;71.40;;;;;;5052871;28;20098;-89
2023/10/07 11:30:11;;;;;;;10.32;4.20;;;20.50;71.40;;;;;;5051594;28;20151;-88
2023/10/07 11:32:40;;;;;;;14.23;4.53;;;20.50;71.00;;;;;;5045908;28;20115;-90
2023/10/07 11:35:30;;;;;;;13.48;3.95;;;20.50;71.00;;;;;;5033742;28;20041;-86
2023/10/07 11:37:59;;;;;;;11.23;4.82;;;20.50;70.70;;;;;;5044757;28;20063;-88
2023/10/07 11:40:25;;;;;;;14.35;5.10;;;20.50;70.80;;;;;;5049390;28;20044;-88
2023/10/07 11:42:52;;;;;;;11.55;4.30;;;20.50;70.50;;;;;;5050942;28;20465;-87
2023/10/07 11:45:22;;;;;;;12.43;4.57;;;20.50;70.70;;;;;;5030545;28;20044;-88
2023/10/07 11:47:48;;;;;;;11.93;4.70;;;20.50;70.40;;;;;;5036581;28;20060;-88
2023/10/07 11:50:16;;;;;;;13.90;5.20;;;20.50;70.50;;;;;;5049255;28;20059;-89
2023/10/07 11:52:42;;;;;;;13.57;4.93;;;20.50;70.70;;;;;;5033417;28;20508;-87
2023/10/07 11:55:09;;;;;;;13.38;4.65;;;20.50;70.50;;;;;;5043951;28;20044;-92
2023/10/07 11:57:37;;;;;;;16.20;5.05;;;20.60;70.20;;;;;;5051032;28;20033;-92
2023/10/07 12:00:09;;;;;;;10.82;4.95;;;20.50;70.00;;;;;;5053932;28;20107;-89
2023/10/07 12:02:35;;;;;;;12.98;5.32;;;20.50;69.90;;;;;;5039983;28;20043;-89
2023/10/07 12:05:00;;;;;;;13.48;4.70;;;20.60;70.30;;;;;;5043754;28;20120;-89
2023/10/07 12:07:29;;;;;;;10.95;4.32;;;20.70;70.70;;;;;;5052388;28;20029;-95
2023/10/07 12:09:55;;;;;;;13.45;4.47;;;20.60;70.70;;;;;;5055071;28;20079;-91
2023/10/07 12:12:21;;;;;;;12.07;4.93;;;20.60;69.80;;;;;;5052418;28;20103;-88
2023/10/07 12:14:49;;;;;;;13.15;5.07;;;20.60;69.80;;;;;;5040074;28;20044;-91
2023/10/07 12:17:16;;;;;;;13.50;4.63;;;20.50;69.90;;;;;;5041944;28;20036;-88
2023/10/07 12:19:43;;;;;;;14.45;4.55;;;20.50;69.90;;;;;;5054970;28;20048;-88
2023/10/07 12:22:09;;;;;;;15.35;5.82;;;20.50;69.40;;;;;;5057717;28;20044;-88
2023/10/07 12:24:35;;;;;;;10.25;4.15;;;20.50;69.00;;;;;;5028611;28;20033;-88
2023/10/07 12:27:01;;;;;;;14.05;5.15;;;20.50;68.70;;;;;;5055603;28;20033;-89
2023/10/07 12:29:28;;;;;;;12.65;4.57;;;20.50;69.20;;;;;;5043380;28;20404;-91
2023/10/07 12:31:53;;;;;;;16.98;5.10;;;20.60;69.40;;;;;;5039769;28;20443;-88
2023/10/07 12:34:20;;;;;;;10.50;4.68;;;20.50;69.70;;;;;;5039184;28;20128;-90
2023/10/07 12:36:52;;;;;;;15.02;4.72;;;20.50;69.70;;;;;;5055608;28;20078;-87
2023/10/07 12:39:21;;;;;;;13.15;5.68;;;20.60;69.50;;;;;;5056023;28;20051;-88
2023/10/07 12:41:47;;;;;;;16.73;4.97;;;20.50;69.70;;;;;;5056173;28;20485;-92
2023/10/07 12:44:13;;;;;;;14.88;4.82;;;20.60;69.70;;;;;;5025176;28;20032;-91
2023/10/07 12:46:40;;;;;;;10.75;4.40;;;20.60;69.60;;;;;;5055392;28;20119;-87
2023/10/07 12:49:10;;;;;;;12.88;4.60;;;20.60;69.80;;;;;;5073556;28;20078;-87
2023/10/07 12:51:41;;;;;;;9.73;4.43;;;20.60;69.70;;;;;;5055718;28;20036;-88
2023/10/07 12:54:10;;;;;;;13.73;4.72;;;20.70;69.80;;;;;;5042334;28;20535;-90
2023/10/07 12:56:42;;;;;;;13.05;5.10;;;20.70;70.00;;;;;;5052995;28;20047;-90
2023/10/07 12:59:18;;;;;;;13.63;5.18;;;20.70;69.80;;;;;;5036166;28;20501;-92
2023/10/07 13:01:56;;;;;;;11.32;5.05;;;20.70;69.50;;;;;;5019059;28;20461;-88
2023/10/07 13:04:25;;;;;;;9.57;4.50;;;20.70;69.20;;;;;;5033554;28;20037;-88
2023/10/07 13:07:00;;;;;;;14.07;5.30;;;20.70;69.70;;;;;;5053609;28;20048;-88
2023/10/07 13:09:33;;;;;;;9.93;4.03;;;20.70;70.20;;;;;;5053663;28;20120;-87
2023/10/07 13:11:59;;;;;;;13.50;4.68;;;20.70;70.30;;;;;;5053086;28;20094;-87
2023/10/07 13:14:28;;;;;;;11.77;5.38;;;20.70;69.90;;;;;;5037412;28;20045;-87
2023/10/07 13:16:56;;;;;;;11.95;4.63;;;20.70;69.40;;;;;;5055068;28;20124;-88
2023/10/07 13:19:35;;;;;;;11.25;4.38;;;20.80;69.50;;;;;;5049751;28;20044;-92
2023/10/07 13:22:05;;;;;;;15.20;6.10;;;20.80;69.00;;;;;;5053031;28;20067;-87
2023/10/07 13:24:34;;;;;;;13.55;6.25;;;20.80;69.10;;;;;;5053974;28;20094;-86
2023/10/07 13:27:02;;;;;;;13.45;6.45;;;20.80;70.00;;;;;;5053562;28;20082;-87
2023/10/07 13:29:28;;;;;;;13.30;5.22;;;20.80;69.40;;;;;;5035820;28;20045;-88
2023/10/07 13:31:53;;;;;;;14.25;5.82;;;20.90;69.40;;;;;;5049943;28;20382;-86
2023/10/07 13:34:21;;;;;;;12.18;5.80;;;20.90;69.20;;;;;;5049028;28;20047;-86
2023/10/07 13:36:48;;;;;;;12.38;5.38;;;20.90;69.30;;;;;;5053600;28;20075;-91
2023/10/07 13:39:20;;;;;;;10.32;5.80;;;20.90;69.30;;;;;;5054359;28;20516;-88
2023/10/07 13:41:47;;;;;;;15.18;6.00;;;20.90;69.30;;;;;;5052070;28;20037;-89